DTKA/TBJ METAR and TAF weather

Enter ICAO airport designator
Station Type Date Time Source
DTKA METAR 2022/06/30 14:00 UTC NOAA

DTKA 301400Z 30004KT 260V360 9999 SCT020 32/22 Q1010 NOSIG


Station Type Date Time Source
DTKA Decoded METAR 2022/06/30 14:00 UTC NOAA

Tabarka, Tunisia (DTKA) 36-57N 008-45E 21M
Jun 30, 2022 - 10:00 AM EDT / 2022.06.30 1400 UTC
Wind: from the WNW (300 degrees) at 5 MPH (4 KT) (direction variable):0
Visibility: greater than 7 mile(s):0
Sky conditions: partly cloudy
Temperature: 89 F (32 C)
Heat index: 95.0 F (35.0 C):1
Dew Point: 71 F (22 C)
Relative Humidity: 55%
Pressure (altimeter): 29.83 in. Hg (1010 hPa)
ob: DTKA 301400Z 30004KT 260V360 9999 SCT020 32/22 Q1010 NOSIG
cycle: 14

Station Type Date Time Source
DTKA TAF 2022/02/16 10:30 UTC NOAA

TAF TAF DTKA 160900Z 1610/1622 27016KT 9999 SCT020 SCT030 PROB40
TEMPO 1610/1622 RA SCT020TCU FEW026CB PROB30
TEMPO 1616/1622 29015G25KT

Example: see airport list